Time;durP1;ratioP1;P1;durP2;ratioP2;P2;SDS_P1;SDS_P2;PMS_P1;PMS_P2;Temp;Humidity;BMP_temperature;BMP_pressure;BME280_temperature;BME280_humidity;BME280_pressure;Samples;Min_cycle;Max_cycle;Signal;HPM_P1;HPM_P2
2023/05/03 00:00:44;;;;;;;6.63;4.50;;;;;;;6.50;100.00;101161.53;5054250;28;20742;-68
2023/05/03 00:03:10;;;;;;;6.90;5.00;;;;;;;6.52;100.00;101162.31;5068748;28;20215;-69
2023/05/03 00:05:36;;;;;;;9.20;4.43;;;;;;;6.36;100.00;101156.66;5075027;28;20174;-70
2023/05/03 00:08:01;;;;;;;8.93;4.63;;;;;;;6.39;100.00;101158.34;5090886;28;20223;-69
2023/05/03 00:10:27;;;;;;;6.93;4.57;;;;;;;6.42;100.00;101159.09;5085217;28;20326;-69
2023/05/03 00:12:52;;;;;;;8.47;4.87;;;;;;;6.39;100.00;101159.19;5093680;28;20630;-69
2023/05/03 00:15:17;;;;;;;9.10;4.50;;;;;;;6.36;100.00;101163.50;5086104;28;20252;-69
2023/05/03 00:17:42;;;;;;;5.10;4.60;;;;;;;6.36;100.00;101159.22;5073376;28;20630;-69
2023/05/03 00:20:08;;;;;;;7.33;4.50;;;;;;;6.22;100.00;101161.22;5062991;28;20630;-69
2023/05/03 00:22:35;;;;;;;9.90;5.17;;;;;;;6.27;100.00;101154.31;5087598;28;20207;-69
2023/05/03 00:25:01;;;;;;;7.43;5.50;;;;;;;6.27;100.00;101152.59;5073087;28;20208;-69
2023/05/03 00:27:26;;;;;;;11.23;4.90;;;;;;;6.15;100.00;101145.16;5072119;28;20229;-69
2023/05/03 00:29:51;;;;;;;9.20;4.53;;;;;;;6.08;100.00;101152.09;5069321;28;20707;-70
2023/05/03 00:32:18;;;;;;;7.17;4.53;;;;;;;6.07;100.00;101150.41;5070408;28;20213;-70
2023/05/03 00:34:44;;;;;;;7.10;4.80;;;;;;;6.02;100.00;101147.13;5072117;28;20185;-69
2023/05/03 00:37:09;;;;;;;10.33;5.20;;;;;;;6.03;100.00;101145.38;5073492;28;20554;-70
2023/05/03 00:39:35;;;;;;;9.70;4.80;;;;;;;5.90;100.00;101139.66;5073311;28;20617;-68
2023/05/03 00:42:02;;;;;;;6.37;4.57;;;;;;;5.99;100.00;101142.06;5077231;28;20313;-68
2023/05/03 00:44:28;;;;;;;8.50;5.47;;;;;;;6.03;100.00;101138.59;5072659;28;20215;-74
2023/05/03 00:46:54;;;;;;;9.17;4.90;;;;;;;5.87;100.00;101127.78;5073285;28;20217;-66
2023/05/03 00:49:20;;;;;;;7.30;4.80;;;;;;;5.94;100.00;101120.84;5073571;28;20190;-70
2023/05/03 00:51:46;;;;;;;8.40;5.43;;;;;;;6.02;100.00;101131.78;5065198;28;20620;-69
2023/05/03 00:54:11;;;;;;;7.73;5.37;;;;;;;5.92;100.00;101130.25;5075352;28;20183;-69
2023/05/03 00:56:38;;;;;;;8.90;6.17;;;;;;;5.89;100.00;101128.59;5084238;28;20708;-70
2023/05/03 00:59:07;;;;;;;8.17;5.63;;;;;;;5.97;100.00;101126.72;5090217;28;20177;-68
2023/05/03 01:01:33;;;;;;;8.13;5.53;;;;;;;5.93;100.00;101121.72;5093595;28;20247;-68
2023/05/03 01:04:03;;;;;;;9.87;5.00;;;;;;;5.91;100.00;101115.81;5094499;28;20558;-68
2023/05/03 01:06:56;;;;;;;9.80;4.87;;;;;;;5.87;100.00;101124.41;5091135;28;20178;-67
2023/05/03 01:09:35;;;;;;;9.97;5.10;;;;;;;5.89;100.00;101123.50;5069446;28;20232;-69
2023/05/03 01:12:09;;;;;;;16.30;5.30;;;;;;;5.86;100.00;101117.59;5078232;28;20759;-70
2023/05/03 01:15:16;;;;;;;7.07;4.67;;;;;;;5.78;100.00;101121.13;5084188;28;20234;-69
2023/05/03 01:17:49;;;;;;;14.53;5.60;;;;;;;5.75;100.00;101112.69;5073816;28;20294;-69
2023/05/03 01:20:21;;;;;;;8.67;5.40;;;;;;;5.84;100.00;101114.22;5080726;28;20259;-68
2023/05/03 01:22:52;;;;;;;6.80;5.07;;;;;;;5.82;100.00;101109.97;5098702;28;20182;-70
2023/05/03 01:25:17;;;;;;;10.13;5.90;;;;;;;5.72;100.00;101105.94;5090766;28;20178;-68
2023/05/03 01:27:43;;;;;;;11.40;5.80;;;;;;;5.62;100.00;101105.25;5088265;28;20289;-68
2023/05/03 01:30:10;;;;;;;8.73;5.00;;;;;;;5.66;100.00;101113.69;5080824;28;20636;-68
2023/05/03 01:33:08;;;;;;;11.50;5.50;;;;;;;5.56;100.00;101107.91;5103531;28;20183;-68
2023/05/03 01:35:40;;;;;;;9.37;5.57;;;;;;;5.64;100.00;101107.75;5088889;28;20193;-67
2023/05/03 01:38:08;;;;;;;10.43;5.43;;;;;;;5.56;100.00;101105.34;5085883;28;20543;-68
2023/05/03 01:40:40;;;;;;;10.67;5.87;;;;;;;5.41;100.00;101096.25;5071968;28;20261;-68
2023/05/03 01:43:08;;;;;;;9.27;5.90;;;;;;;5.45;100.00;101097.06;5054483;28;20179;-68
2023/05/03 01:45:34;;;;;;;11.10;5.63;;;;;;;5.25;100.00;101098.22;5087736;28;20181;-68
2023/05/03 01:47:59;;;;;;;7.40;5.23;;;;;;;5.32;100.00;101097.25;5090401;28;20225;-68
2023/05/03 01:50:24;;;;;;;8.37;5.70;;;;;;;5.25;100.00;101100.78;5079534;28;20222;-68
2023/05/03 01:52:51;;;;;;;10.50;5.47;;;;;;;5.23;100.00;101094.84;5103207;28;20196;-70
2023/05/03 01:55:17;;;;;;;10.07;5.87;;;;;;;5.07;100.00;101093.41;5088889;28;20270;-69
2023/05/03 01:57:42;;;;;;;10.07;6.37;;;;;;;5.01;100.00;101094.34;5090068;28;20282;-68
2023/05/03 02:00:08;;;;;;;8.43;6.00;;;;;;;4.98;100.00;101100.31;5080653;28;20215;-71
2023/05/03 02:02:34;;;;;;;11.47;6.63;;;;;;;4.98;100.00;101105.44;5107050;28;20182;-69
2023/05/03 02:04:59;;;;;;;13.50;6.47;;;;;;;4.89;100.00;101109.81;5094940;28;20204;-71
2023/05/03 02:07:24;;;;;;;10.17;6.10;;;;;;;4.92;100.00;101109.78;5082128;28;20210;-71
2023/05/03 02:09:50;;;;;;;9.27;6.77;;;;;;;4.82;100.00;101114.19;5095460;28;20686;-69
2023/05/03 02:12:15;;;;;;;9.60;5.63;;;;;;;4.81;100.00;101115.91;5093971;28;20219;-70
2023/05/03 02:14:40;;;;;;;13.43;6.90;;;;;;;4.66;100.00;101123.75;5074741;28;20200;-69
2023/05/03 02:17:07;;;;;;;11.50;6.43;;;;;;;4.62;100.00;101133.13;5081572;28;20226;-70
2023/05/03 02:19:32;;;;;;;10.13;6.40;;;;;;;4.47;100.00;101126.53;5081948;28;20173;-69
2023/05/03 02:21:57;;;;;;;9.83;6.60;;;;;;;4.40;100.00;101134.28;5079425;28;20223;-69
2023/05/03 02:24:23;;;;;;;9.07;6.80;;;;;;;4.27;100.00;101139.50;5076159;28;20234;-69
2023/05/03 02:26:48;;;;;;;11.13;6.10;;;;;;;4.30;100.00;101134.38;5086942;28;20189;-68
2023/05/03 02:29:13;;;;;;;9.17;5.93;;;;;;;4.28;100.00;101136.13;5095188;28;20191;-68
2023/05/03 02:31:38;;;;;;;13.93;6.50;;;;;;;4.26;100.00;101142.09;5080147;28;20699;-69
2023/05/03 02:34:04;;;;;;;11.27;6.83;;;;;;;4.20;100.00;101135.34;5077795;28;20177;-69
2023/05/03 02:36:29;;;;;;;9.70;5.83;;;;;;;4.14;100.00;101143.06;5074412;28;20200;-67
2023/05/03 02:38:55;;;;;;;10.50;6.43;;;;;;;4.10;100.00;101141.41;5074998;28;20697;-69
2023/05/03 02:41:20;;;;;;;13.23;6.83;;;;;;;4.08;100.00;101135.47;5074815;28;20223;-67
2023/05/03 02:43:45;;;;;;;7.73;6.80;;;;;;;4.06;100.00;101138.06;5080189;28;20263;-69
2023/05/03 02:46:11;;;;;;;11.37;7.43;;;;;;;4.10;100.00;101137.16;5074018;28;20267;-68
2023/05/03 02:48:36;;;;;;;19.67;8.60;;;;;;;4.02;100.00;101126.22;5075025;28;20226;-68
2023/05/03 02:51:02;;;;;;;11.80;7.23;;;;;;;3.95;100.00;101125.44;5065412;28;20255;-68
2023/05/03 02:53:27;;;;;;;14.53;7.37;;;;;;;3.87;100.00;101125.53;5082046;28;20192;-68
2023/05/03 02:55:53;;;;;;;14.47;8.10;;;;;;;3.83;100.00;101128.09;5089825;28;20611;-68
2023/05/03 02:58:19;;;;;;;11.17;7.30;;;;;;;3.70;100.00;101123.13;5082465;28;20215;-68
2023/05/03 03:00:44;;;;;;;8.30;7.23;;;;;;;3.67;100.00;101123.19;5054018;28;20224;-68
2023/05/03 03:03:09;;;;;;;9.17;7.03;;;;;;;3.69;100.00;101123.16;5064582;28;20205;-68
2023/05/03 03:05:34;;;;;;;12.27;8.00;;;;;;;3.64;100.00;101125.72;5073767;28;20188;-69
2023/05/03 03:08:00;;;;;;;12.53;7.53;;;;;;;3.64;100.00;101123.19;5074355;28;20659;-69
2023/05/03 03:10:25;;;;;;;12.47;8.13;;;;;;;3.63;100.00;101124.03;5067721;28;20241;-69
2023/05/03 03:12:50;;;;;;;10.83;7.57;;;;;;;3.68;100.00;101114.69;5086409;28;20184;-68
2023/05/03 03:15:16;;;;;;;16.13;7.70;;;;;;;3.55;100.00;101118.19;5066151;28;20194;-70
2023/05/03 03:17:41;;;;;;;12.33;7.07;;;;;;;3.52;100.00;101111.44;5053484;28;20291;-69
2023/05/03 03:20:10;;;;;;;13.70;7.40;;;;;;;3.48;100.00;101119.09;5061987;28;20217;-68
2023/05/03 03:22:36;;;;;;;12.43;7.53;;;;;;;3.42;100.00;101119.16;5089909;28;20651;-69
2023/05/03 03:25:03;;;;;;;14.77;8.37;;;;;;;3.41;100.00;101117.47;5092257;28;20263;-70
2023/05/03 03:27:28;;;;;;;14.03;7.63;;;;;;;3.36;100.00;101107.31;5092060;28;20275;-69
2023/05/03 03:29:54;;;;;;;15.77;8.03;;;;;;;3.39;100.00;101102.22;5086378;28;20259;-68
2023/05/03 03:32:20;;;;;;;14.30;8.20;;;;;;;3.34;100.00;101098.88;5059533;28;20645;-68
2023/05/03 03:34:45;;;;;;;13.23;7.33;;;;;;;3.33;100.00;101102.28;5093291;28;20783;-68
2023/05/03 03:37:10;;;;;;;25.40;8.50;;;;;;;3.25;100.00;101102.34;5092998;28;20290;-68
2023/05/03 03:39:37;;;;;;;11.13;6.53;;;;;;;3.22;100.00;101098.13;5092729;28;20229;-68
2023/05/03 03:42:03;;;;;;;11.93;7.90;;;;;;;3.19;100.00;101099.84;5098164;28;20219;-68
2023/05/03 03:44:28;;;;;;;11.23;7.63;;;;;;;3.22;100.00;101099.81;5093147;28;20190;-69
2023/05/03 03:46:53;;;;;;;16.13;8.53;;;;;;;3.19;100.00;101110.03;5093743;28;20183;-68
2023/05/03 03:49:19;;;;;;;15.93;8.10;;;;;;;3.17;100.00;101109.19;5084898;28;20204;-68
2023/05/03 03:51:44;;;;;;;16.23;8.53;;;;;;;3.18;100.00;101113.41;5076972;28;20243;-68
2023/05/03 03:54:09;;;;;;;11.07;7.40;;;;;;;3.12;100.00;101119.38;5095919;28;20179;-69
2023/05/03 03:56:34;;;;;;;14.07;7.87;;;;;;;3.16;100.00;101118.53;5091389;28;20663;-69
2023/05/03 03:59:00;;;;;;;13.13;7.70;;;;;;;3.16;100.00;101115.97;5079932;28;20179;-70
2023/05/03 04:01:25;;;;;;;15.10;7.83;;;;;;;3.12;100.00;101119.38;5076226;28;20231;-71
2023/05/03 04:03:50;;;;;;;11.43;8.20;;;;;;;3.16;100.00;101125.28;5081959;28;20550;-70
2023/05/03 04:06:16;;;;;;;13.37;8.50;;;;;;;3.12;100.00;101132.09;5086031;28;20544;-69
2023/05/03 04:08:41;;;;;;;10.20;7.40;;;;;;;3.13;100.00;101123.63;5086385;28;20243;-69
2023/05/03 04:11:11;;;;;;;13.77;7.93;;;;;;;3.08;100.00;101132.97;5086619;28;20629;-70
2023/05/03 04:13:36;;;;;;;11.67;7.97;;;;;;;3.13;100.00;101130.41;5085127;28;20178;-68
2023/05/03 04:16:01;;;;;;;10.47;7.43;;;;;;;3.18;100.00;101124.41;5087842;28;20274;-68
2023/05/03 04:18:27;;;;;;;9.23;7.97;;;;;;;3.28;100.00;101130.28;5087285;28;20176;-69
2023/05/03 04:20:52;;;;;;;8.97;6.73;;;;;;;3.30;100.00;101137.88;5085960;28;20222;-69
2023/05/03 04:23:18;;;;;;;13.33;7.77;;;;;;;3.29;100.00;101133.69;5077493;28;20184;-69
2023/05/03 04:25:47;;;;;;;15.30;8.33;;;;;;;3.37;100.00;101142.94;5072507;28;20670;-69
2023/05/03 04:28:12;;;;;;;13.87;8.23;;;;;;;3.49;100.00;101136.88;5072800;28;20262;-68
2023/05/03 04:30:38;;;;;;;13.40;8.10;;;;;;;3.51;100.00;101137.72;5067380;28;20780;-68
2023/05/03 04:33:03;;;;;;;13.30;8.50;;;;;;;3.61;100.00;101142.72;5083581;28;20183;-68
2023/05/03 04:35:28;;;;;;;14.70;8.60;;;;;;;3.63;100.00;101134.22;5067609;28;20261;-68
2023/05/03 04:37:54;;;;;;;11.83;8.00;;;;;;;3.69;100.00;101143.50;5071804;28;20230;-69
2023/05/03 04:40:19;;;;;;;17.63;7.37;;;;;;;3.66;100.00;101143.53;5060286;28;20280;-69
2023/05/03 04:42:44;;;;;;;10.33;7.17;;;;;;;3.74;100.00;101136.69;5066897;28;20659;-67
2023/05/03 04:45:10;;;;;;;10.90;7.83;;;;;;;3.69;100.00;101130.78;5064943;28;20543;-68
2023/05/03 04:47:35;;;;;;;11.00;8.63;;;;;;;3.73;100.00;101129.91;5072792;28;20202;-70
2023/05/03 04:50:01;;;;;;;10.97;7.73;;;;;;;3.81;100.00;101130.66;5071926;28;20195;-68
2023/05/03 04:52:26;;;;;;;13.50;8.47;;;;;;;3.97;100.00;101133.91;5077775;28;20228;-68
2023/05/03 04:54:51;;;;;;;13.93;8.10;;;;;;;3.96;100.00;101139.03;5072064;28;20561;-68
2023/05/03 04:57:17;;;;;;;16.23;8.10;;;;;;;3.99;100.00;101124.53;5089557;28;20714;-70
2023/05/03 04:59:42;;;;;;;13.57;7.53;;;;;;;4.25;100.00;101125.94;5092664;28;20210;-69
2023/05/03 05:02:07;;;;;;;17.73;7.93;;;;;;;4.40;100.00;101135.09;5096782;28;20279;-69
2023/05/03 05:04:32;;;;;;;10.83;8.27;;;;;;;4.58;100.00;101136.59;5091607;28;20171;-69
2023/05/03 05:06:58;;;;;;;15.00;8.07;;;;;;;4.67;100.00;101131.34;5090630;28;20187;-69
2023/05/03 05:09:25;;;;;;;12.87;8.23;;;;;;;4.84;100.00;101128.59;5092143;28;20219;-69
2023/05/03 05:11:51;;;;;;;12.03;7.27;;;;;;;5.04;100.00;101137.66;5076445;28;20223;-74
2023/05/03 05:14:16;;;;;;;10.23;7.23;;;;;;;5.22;100.00;101135.69;5073834;28;20183;-69
2023/05/03 05:16:41;;;;;;;10.83;7.00;;;;;;;5.28;100.00;101136.44;5091152;28;20214;-69
2023/05/03 05:19:07;;;;;;;12.03;7.03;;;;;;;5.47;100.00;101133.56;5092206;28;20207;-70
2023/05/03 05:21:32;;;;;;;9.17;6.57;;;;;;;5.53;100.00;101130.91;5076581;28;20269;-69
2023/05/03 05:23:58;;;;;;;10.73;6.97;;;;;;;5.80;100.00;101134.72;5067392;28;20257;-70
2023/05/03 05:26:23;;;;;;;11.03;6.13;;;;;;;5.94;100.00;101133.59;5069197;28;20176;-69
2023/05/03 05:28:49;;;;;;;15.77;5.87;;;;;;;5.97;100.00;101134.41;5091924;28;20183;-69
2023/05/03 05:31:14;;;;;;;7.93;5.50;;;;;;;6.07;100.00;101132.53;5080444;28;20229;-69
2023/05/03 05:33:39;;;;;;;10.07;6.10;;;;;;;6.17;100.00;101133.22;5074081;28;20188;-69
2023/05/03 05:36:05;;;;;;;13.80;5.50;;;;;;;6.23;100.00;101138.19;5071499;28;20181;-68
2023/05/03 05:38:30;;;;;;;9.17;5.33;;;;;;;6.53;100.00;101143.56;5071816;28;20263;-68
2023/05/03 05:40:56;;;;;;;8.20;5.20;;;;;;;6.44;100.00;101142.03;5068779;28;20239;-68
2023/05/03 05:43:21;;;;;;;7.50;4.60;;;;;;;6.48;100.00;101137.69;5089790;28;20186;-68
2023/05/03 05:45:46;;;;;;;10.57;5.10;;;;;;;6.56;100.00;101150.31;5091079;28;20625;-68
2023/05/03 05:48:12;;;;;;;9.80;5.27;;;;;;;6.55;100.00;101143.50;5080616;28;20183;-68
2023/05/03 05:50:37;;;;;;;7.33;4.97;;;;;;;6.67;100.00;101130.47;5079167;28;20286;-68
2023/05/03 05:53:03;;;;;;;7.27;5.27;;;;;;;6.77;100.00;101131.09;5093083;28;20191;-69
2023/05/03 05:55:28;;;;;;;10.10;5.30;;;;;;;6.85;100.00;101134.34;5073133;28;20687;-68
2023/05/03 05:57:53;;;;;;;8.10;5.40;;;;;;;7.03;100.00;101134.81;5083848;28;20244;-68
2023/05/03 06:00:20;;;;;;;6.53;4.70;;;;;;;7.24;100.00;101128.34;5063219;28;20199;-68
2023/05/03 06:02:45;;;;;;;4.93;4.33;;;;;;;7.27;100.00;101125.72;5070141;28;20180;-70
2023/05/03 06:05:10;;;;;;;8.33;4.67;;;;;;;7.19;100.00;101118.19;5070878;28;20194;-70
2023/05/03 06:07:36;;;;;;;9.10;4.90;;;;;;;7.15;100.00;101116.59;5073221;28;20211;-69
2023/05/03 06:10:02;;;;;;;8.70;6.00;;;;;;;7.24;100.00;101121.50;5082033;28;20212;-66
2023/05/03 06:12:28;;;;;;;18.97;5.43;;;;;;;7.36;100.00;101125.47;5083807;28;20195;-68
2023/05/03 06:14:53;;;;;;;7.67;4.83;;;;;;;7.37;100.00;101126.34;5084069;28;20194;-68
2023/05/03 06:17:21;;;;;;;9.27;5.07;;;;;;;7.51;100.00;101136.22;5080040;28;20662;-68
2023/05/03 06:19:48;;;;;;;10.03;4.87;;;;;;;7.64;100.00;101145.28;5083733;28;20196;-68
2023/05/03 06:22:13;;;;;;;6.60;4.60;;;;;;;7.65;100.00;101156.34;5060294;28;20631;-68
2023/05/03 06:24:39;;;;;;;10.73;5.47;;;;;;;7.59;100.00;101144.53;5079626;28;20184;-69
2023/05/03 06:27:04;;;;;;;9.83;5.53;;;;;;;7.68;100.00;101144.31;5073089;28;20189;-70
2023/05/03 06:29:30;;;;;;;8.53;5.00;;;;;;;7.77;100.00;101147.53;5088667;28;20267;-69
2023/05/03 06:31:55;;;;;;;12.10;5.10;;;;;;;8.40;97.97;101153.50;5095118;28;20285;-70
2023/05/03 06:34:20;;;;;;;9.97;5.20;;;;;;;8.86;91.81;101159.03;5077652;28;20192;-70
2023/05/03 06:36:46;;;;;;;6.03;4.47;;;;;;;9.31;90.39;101157.63;5072644;28;20277;-56
2023/05/03 06:39:11;;;;;;;8.60;4.30;;;;;;;10.13;86.94;101155.72;5068745;28;20232;-59
2023/05/03 06:41:37;;;;;;;9.83;5.23;;;;;;;11.04;79.19;101148.91;5073533;28;20546;-58
2023/05/03 06:44:03;;;;;;;9.33;4.87;;;;;;;11.55;71.31;101141.69;5060914;28;20556;-58
2023/05/03 06:46:28;;;;;;;11.77;3.67;;;;;;;11.57;69.45;101144.19;5070809;28;20288;-59
2023/05/03 06:48:57;;;;;;;9.00;4.30;;;;;;;12.03;64.55;101150.00;5089466;28;20652;-58
2023/05/03 06:51:27;;;;;;;5.23;3.83;;;;;;;12.23;62.65;101138.81;5069337;28;20231;-59
2023/05/03 06:53:59;;;;;;;4.40;3.60;;;;;;;12.28;60.56;101138.59;5071322;28;20177;-59
2023/05/03 06:56:24;;;;;;;8.73;4.37;;;;;;;12.67;59.41;101147.16;5038162;28;20224;-58
2023/05/03 06:58:50;;;;;;;7.10;4.20;;;;;;;13.42;56.16;101137.56;5088903;28;20278;-58
2023/05/03 07:01:16;;;;;;;6.00;3.83;;;;;;;13.75;53.42;101135.94;5064257;28;20219;-59
2023/05/03 07:03:41;;;;;;;8.40;3.97;;;;;;;13.96;52.12;101136.56;5085602;28;20585;-58
2023/05/03 07:06:06;;;;;;;17.43;4.27;;;;;;;14.51;50.52;101131.03;5092931;28;20258;-58
2023/05/03 07:08:32;;;;;;;10.03;4.50;;;;;;;15.41;47.51;101132.97;5094240;28;20578;-59
2023/05/03 07:10:57;;;;;;;8.03;4.07;;;;;;;15.12;47.10;101136.31;5083639;28;20679;-59
2023/05/03 07:13:22;;;;;;;9.97;4.00;;;;;;;15.07;47.60;101138.34;5085308;28;20227;-60
2023/05/03 07:15:48;;;;;;;9.67;3.93;;;;;;;15.05;46.43;101140.19;5072751;28;20241;-67
2023/05/03 07:18:13;;;;;;;6.80;4.03;;;;;;;16.30;44.61;101143.19;5072930;28;20274;-68
2023/05/03 07:20:38;;;;;;;12.97;4.07;;;;;;;18.28;40.56;101139.78;5074048;28;20686;-68
2023/05/03 07:23:05;;;;;;;6.60;4.07;;;;;;;17.72;39.36;101151.44;5079659;28;20238;-68
2023/05/03 07:25:30;;;;;;;12.57;4.03;;;;;;;17.71;40.06;101152.34;5084741;28;20192;-68
2023/05/03 07:27:56;;;;;;;12.50;4.23;;;;;;;15.81;42.62;101149.63;5084219;28;20545;-68
2023/05/03 07:30:21;;;;;;;10.47;3.93;;;;;;;15.36;43.04;101148.78;5056753;28;20217;-67
2023/05/03 07:32:46;;;;;;;6.63;3.97;;;;;;;15.72;44.07;101144.13;5083646;28;20208;-66
2023/05/03 07:35:14;;;;;;;7.13;3.70;;;;;;;16.09;42.70;101140.16;5074706;28;20601;-67
2023/05/03 07:37:39;;;;;;;8.93;3.73;;;;;;;15.71;43.54;101140.69;5074192;28;20651;-67
2023/05/03 07:40:06;;;;;;;5.50;3.93;;;;;;;15.50;43.80;101140.19;5067873;28;20207;-65
2023/05/03 07:42:31;;;;;;;8.30;4.13;;;;;;;15.42;43.76;101134.66;5089089;28;20212;-68
2023/05/03 07:44:59;;;;;;;9.17;4.20;;;;;;;15.63;43.40;101129.97;5078345;28;20567;-70
2023/05/03 07:47:26;;;;;;;6.30;3.97;;;;;;;17.10;41.46;101132.13;5075010;28;20202;-69
2023/05/03 07:49:52;;;;;;;8.73;3.50;;;;;;;17.58;40.38;101122.91;5078173;28;20678;-70
2023/05/03 07:52:17;;;;;;;6.43;3.60;;;;;;;18.36;39.00;101129.69;5065930;28;20248;-68
2023/05/03 07:54:44;;;;;;;6.47;3.97;;;;;;;17.16;39.89;101130.88;5078848;28;20181;-68
2023/05/03 07:57:09;;;;;;;8.03;4.03;;;;;;;16.87;40.65;101132.72;5086816;28;20207;-68
2023/05/03 07:59:35;;;;;;;6.87;3.57;;;;;;;17.26;40.94;101134.50;5072522;28;20189;-68
2023/05/03 08:02:00;;;;;;;6.17;3.50;;;;;;;17.07;40.74;101121.91;5077985;28;20223;-68
2023/05/03 08:04:25;;;;;;;6.67;3.70;;;;;;;17.84;39.15;101128.09;5082172;28;20271;-70
2023/05/03 08:06:51;;;;;;;5.73;3.80;;;;;;;18.12;39.00;101126.19;5090834;28;20658;-70
2023/05/03 08:09:17;;;;;;;4.40;3.07;;;;;;;19.82;36.21;101124.19;5081528;28;20231;-71
2023/05/03 08:11:42;;;;;;;8.47;3.80;;;;;;;18.51;37.56;101129.53;5078825;28;20303;-66
2023/05/03 08:14:08;;;;;;;7.47;3.87;;;;;;;17.34;39.19;101134.03;5089951;28;20251;-67
2023/05/03 08:16:33;;;;;;;5.73;3.83;;;;;;;17.21;40.30;101128.78;5076392;28;20644;-66
2023/05/03 08:18:58;;;;;;;9.27;4.10;;;;;;;17.99;38.92;101118.44;5075762;28;20644;-67
2023/05/03 08:21:25;;;;;;;7.60;4.23;;;;;;;17.21;39.52;101125.38;5073665;28;20220;-66
2023/05/03 08:23:50;;;;;;;6.07;4.23;;;;;;;18.34;38.21;101122.91;5073052;28;20278;-67
2023/05/03 08:26:16;;;;;;;5.63;3.97;;;;;;;18.28;38.31;101118.97;5080946;28;20418;-64
2023/05/03 08:28:41;;;;;;;5.20;3.43;;;;;;;18.72;38.50;101121.94;5087353;28;20470;-64
2023/05/03 08:31:06;;;;;;;7.20;3.87;;;;;;;18.45;38.49;101130.78;5089767;28;20653;-67
2023/05/03 08:33:32;;;;;;;9.67;3.93;;;;;;;17.24;39.85;101133.81;5099893;28;20215;-65
2023/05/03 08:35:57;;;;;;;5.90;4.10;;;;;;;16.91;41.23;101127.28;5090276;28;20180;-64
2023/05/03 08:38:23;;;;;;;5.47;3.90;;;;;;;18.05;39.24;101133.63;5092210;28;20651;-67
2023/05/03 08:40:50;;;;;;;5.40;3.80;;;;;;;18.92;37.11;101130.09;5082038;28;20453;-68
2023/05/03 08:43:19;;;;;;;9.10;4.87;;;;;;;18.72;38.10;101129.75;5090544;28;20184;-70
2023/05/03 08:45:45;;;;;;;6.63;3.97;;;;;;;19.61;36.13;101129.28;5089789;28;20227;-67
2023/05/03 08:48:12;;;;;;;5.63;3.83;;;;;;;18.26;38.04;101133.03;5089142;28;20211;-67
2023/05/03 08:50:41;;;;;;;5.07;3.73;;;;;;;17.96;38.24;101134.25;5070250;28;20219;-66
2023/05/03 08:53:09;;;;;;;5.57;4.07;;;;;;;19.55;37.37;101125.38;5070340;28;20189;-68
2023/05/03 08:55:34;;;;;;;5.20;4.17;;;;;;;17.83;37.46;101139.44;5089799;28;20180;-67
2023/05/03 08:58:00;;;;;;;7.23;4.47;;;;;;;17.88;38.07;101124.34;5082596;28;20191;-66
2023/05/03 09:00:28;;;;;;;7.00;4.27;;;;;;;18.46;36.83;101122.03;5063539;28;20642;-68
2023/05/03 09:02:54;;;;;;;7.57;4.57;;;;;;;17.96;37.74;101123.84;5067446;28;20178;-66
2023/05/03 09:05:19;;;;;;;6.63;4.33;;;;;;;18.35;37.21;101130.59;5081206;28;20195;-67
2023/05/03 09:08:02;;;;;;;8.83;4.53;;;;;;;18.62;37.06;101123.53;5071214;28;20193;-66
2023/05/03 09:10:29;;;;;;;5.83;4.43;;;;;;;18.28;37.45;101123.34;5074690;28;20238;-66
2023/05/03 09:13:01;;;;;;;6.23;4.20;;;;;;;19.13;35.29;101119.88;5083684;28;20173;-68
2023/05/03 09:15:29;;;;;;;7.90;4.43;;;;;;;19.05;35.81;101117.81;5084524;28;20206;-66
2023/05/03 09:18:17;;;;;;;6.83;4.37;;;;;;;19.76;35.44;101125.53;5082711;28;20203;-67
2023/05/03 09:20:54;;;;;;;9.03;4.57;;;;;;;20.74;34.98;101123.13;5076158;28;20666;-66
2023/05/03 09:23:25;;;;;;;5.50;4.30;;;;;;;20.02;34.00;101117.47;5068442;28;20271;-66
2023/05/03 09:25:51;;;;;;;5.90;4.27;;;;;;;18.89;35.62;101125.91;5067856;28;20212;-67
2023/05/03 09:28:18;;;;;;;6.67;4.63;;;;;;;18.78;35.35;101124.09;5084084;28;20227;-67
2023/05/03 09:30:46;;;;;;;7.77;4.50;;;;;;;20.67;34.37;101117.53;5071057;28;20674;-68
2023/05/03 09:33:19;;;;;;;5.00;4.37;;;;;;;22.28;31.53;101111.06;5066813;28;20674;-67
2023/05/03 09:36:10;;;;;;;9.20;4.80;;;;;;;22.16;30.73;101113.81;5068312;28;20200;-67
2023/05/03 09:38:35;;;;;;;6.18;4.38;;;;;;;23.46;30.24;101110.06;5071489;28;20200;-69
2023/05/03 09:41:02;;;;;;;8.60;4.53;;;;;;;21.76;32.26;101117.31;5088340;28;20236;-69
2023/05/03 09:43:27;;;;;;;7.72;4.38;;;;;;;20.58;33.45;101123.53;5088228;28;20187;-70
2023/05/03 09:46:07;;;;;;;11.40;4.57;;;;;;;19.18;34.40;101109.91;5070946;28;20188;-69
2023/05/03 09:48:32;;;;;;;9.67;4.93;;;;;;;19.38;34.54;101097.16;5059896;28;20181;-69
2023/05/03 09:50:57;;;;;;;4.97;4.50;;;;;;;19.23;34.93;101093.94;5069525;28;20299;-68
2023/05/03 09:53:25;;;;;;;6.23;4.50;;;;;;;20.70;33.23;101092.94;5072622;28;20177;-69
2023/05/03 09:55:51;;;;;;;6.03;4.10;;;;;;;20.42;33.88;101100.41;5077699;28;20183;-58
2023/05/03 09:58:17;;;;;;;5.97;4.07;;;;;;;21.36;33.24;101086.63;5079635;28;20561;-59
2023/05/03 10:00:45;;;;;;;6.10;4.07;;;;;;;22.46;30.98;101095.56;5070874;28;20280;-58
2023/05/03 10:03:17;;;;;;;8.57;4.23;;;;;;;21.42;30.81;101089.56;5066048;28;20268;-66
2023/05/03 10:05:46;;;;;;;6.57;4.27;;;;;;;20.83;32.92;101092.81;5075672;28;20598;-67
2023/05/03 10:08:19;;;;;;;9.63;4.53;;;;;;;19.74;33.87;101087.44;5071776;28;20299;-68
2023/05/03 10:10:49;;;;;;;9.03;4.63;;;;;;;21.24;32.63;101099.78;5068945;28;20298;-67
2023/05/03 10:13:15;;;;;;;14.60;4.50;;;;;;;20.69;32.50;101089.50;5062958;28;20230;-69
2023/05/03 10:15:42;;;;;;;9.63;4.53;;;;;;;21.82;31.80;101087.97;5073069;28;20229;-67
2023/05/03 10:18:13;;;;;;;6.93;4.60;;;;;;;20.12;33.23;101094.88;5072895;28;20643;-68
2023/05/03 10:20:51;;;;;;;7.43;4.40;;;;;;;20.85;32.70;101094.34;5071082;28;20727;-68
2023/05/03 10:23:20;;;;;;;7.70;4.47;;;;;;;20.02;32.25;101100.97;5083458;28;20176;-69
2023/05/03 10:26:04;;;;;;;8.70;4.37;;;;;;;20.77;31.47;101097.56;5081294;28;20233;-68
2023/05/03 10:28:32;;;;;;;6.75;4.82;;;;;;;21.05;32.55;101089.22;5071577;28;20421;-68
2023/05/03 10:30:57;;;;;;;7.73;4.47;;;;;;;21.89;32.60;101090.88;5077640;28;20238;-68
2023/05/03 10:33:35;;;;;;;10.23;4.00;;;;;;;21.84;31.60;101091.25;5086992;28;20703;-67
2023/05/03 10:36:06;;;;;;;7.87;4.37;;;;;;;20.41;32.51;101083.06;5068887;28;20193;-68
2023/05/03 10:38:32;;;;;;;7.57;5.17;;;;;;;17.98;35.81;101086.34;5089413;28;20210;-69
2023/05/03 10:41:00;;;;;;;6.17;4.57;;;;;;;18.02;35.93;101085.22;5075375;28;20224;-68
2023/05/03 10:43:32;;;;;;;7.63;5.00;;;;;;;16.86;38.81;101073.94;5085974;28;20250;-68
2023/05/03 10:46:02;;;;;;;8.47;4.93;;;;;;;16.64;39.81;101075.31;5084395;28;20176;-67
2023/05/03 10:48:28;;;;;;;6.63;5.03;;;;;;;15.68;41.79;101070.84;5083615;28;20199;-67
2023/05/03 10:50:55;;;;;;;6.27;4.73;;;;;;;15.27;43.50;101071.56;5076488;28;20224;-65
2023/05/03 10:53:35;;;;;;;8.73;4.93;;;;;;;14.71;43.77;101061.81;5060850;28;20192;-67
2023/05/03 10:56:10;;;;;;;8.70;4.80;;;;;;;14.74;45.04;101058.22;5078852;28;20271;-69
2023/05/03 10:58:37;;;;;;;9.07;5.93;;;;;;;14.73;43.10;101067.72;5093947;28;20208;-68
2023/05/03 11:01:04;;;;;;;8.40;5.33;;;;;;;14.51;44.33;101062.88;5065048;28;20306;-67
2023/05/03 11:03:51;;;;;;;7.60;5.20;;;;;;;14.43;44.86;101052.13;5070784;28;20263;-68
2023/05/03 11:06:37;;;;;;;8.63;5.33;;;;;;;14.56;45.13;101063.44;5065194;28;20342;-69
2023/05/03 11:09:05;;;;;;;7.03;4.97;;;;;;;14.58;46.10;101053.03;5073154;28;20224;-69
2023/05/03 11:11:31;;;;;;;9.93;5.37;;;;;;;14.41;44.65;101053.97;5082813;28;20698;-67
2023/05/03 11:13:57;;;;;;;8.13;5.60;;;;;;;14.31;44.04;101038.94;5079743;28;20195;-68
2023/05/03 11:16:23;;;;;;;9.43;4.93;;;;;;;14.23;45.73;101033.34;5077194;28;20689;-69
2023/05/03 11:18:49;;;;;;;6.03;5.20;;;;;;;14.23;46.27;101035.94;5091825;28;20638;-67
2023/05/03 11:21:15;;;;;;;9.30;5.73;;;;;;;14.17;46.27;101037.09;5063879;28;20228;-68